Time;durP1;ratioP1;P1;durP2;ratioP2;P2;SDS_P1;SDS_P2;PMS_P1;PMS_P2;Temp;Humidity;BMP_temperature;BMP_pressure;BME280_temperature;BME280_humidity;BME280_pressure;Samples;Min_cycle;Max_cycle;Signal;HPM_P1;HPM_P2
2023/04/09 00:02:15;;;;;;;;;;;;;;;5.36;82.44;95396.78;4956321;29;1988;-49
2023/04/09 00:04:41;;;;;;;;;;;;;;;5.35;82.96;95405.69;4956304;29;1086;-49
2023/04/09 00:07:07;;;;;;;;;;;;;;;5.44;82.33;95399.66;4956523;29;1043;-50
2023/04/09 00:09:33;;;;;;;;;;;;;;;5.22;81.26;95403.19;4944143;29;1180;-50
2023/04/09 00:12:00;;;;;;;;;;;;;;;4.76;82.80;95401.50;4936153;29;1116;-50
2023/04/09 00:14:26;;;;;;;;;;;;;;;4.53;84.47;95403.28;4936922;29;968;-50
2023/04/09 00:16:53;;;;;;;;;;;;;;;4.71;85.04;95408.97;4936973;29;1062;-50
2023/04/09 00:19:19;;;;;;;;;;;;;;;4.95;84.10;95403.53;4937032;29;1054;-49
2023/04/09 00:21:45;;;;;;;;;;;;;;;5.04;84.14;95405.47;4936760;29;1903;-50
2023/04/09 00:24:11;;;;;;;;;;;;;;;5.02;83.16;95412.72;4936985;29;1031;-50
2023/04/09 00:26:37;;;;;;;;;;;;;;;5.07;82.98;95407.91;4936730;29;1074;-50
2023/04/09 00:29:03;;;;;;;;;;;;;;;5.11;83.61;95406.69;4936931;29;1063;-50
2023/04/09 00:31:30;;;;;;;;;;;;;;;4.98;83.05;95413.91;4936693;29;1049;-49
2023/04/09 00:33:56;;;;;;;;;;;;;;;4.74;83.81;95414.84;4936700;29;1890;-50
2023/04/09 00:36:22;;;;;;;;;;;;;;;4.79;84.52;95419.81;4936707;29;1038;-50
2023/04/09 00:38:49;;;;;;;;;;;;;;;4.92;84.49;95412.59;4936507;29;1027;-50
2023/04/09 00:41:16;;;;;;;;;;;;;;;5.04;84.28;95410.78;4936286;29;1906;-50
2023/04/09 00:43:42;;;;;;;;;;;;;;;5.04;83.87;95411.63;4936380;29;1718;-50
2023/04/09 00:46:08;;;;;;;;;;;;;;;5.07;83.61;95408.72;4936742;29;1216;-50
2023/04/09 00:48:34;;;;;;;;;;;;;;;5.16;83.74;95401.88;4936501;29;1003;-50
2023/04/09 00:51:00;;;;;;;;;;;;;;;5.15;83.40;95408.13;4936386;29;1886;-50
2023/04/09 00:53:27;;;;;;;;;;;;;;;4.98;83.87;95416.56;4936473;29;1035;-50
2023/04/09 00:55:54;;;;;;;;;;;;;;;4.92;84.56;95422.34;4936484;29;972;-50
2023/04/09 00:58:20;;;;;;;;;;;;;;;5.03;84.34;95415.25;4936245;29;1303;-50
2023/04/09 01:00:46;;;;;;;;;;;;;;;4.94;85.17;95413.31;4936327;29;1043;-50
2023/04/09 01:03:12;;;;;;;;;;;;;;;4.96;85.40;95411.38;4936297;29;1940;-50
2023/04/09 01:05:51;;;;;;;;;;;;;;;5.22;85.10;95414.63;4936416;29;1022;-50
2023/04/09 01:08:36;;;;;;;;;;;;;;;5.38;84.22;95410.75;4938223;29;1315;-50
2023/04/09 01:11:11;;;;;;;;;;;;;;;5.42;84.52;95413.03;4938345;29;980;-50
2023/04/09 01:13:48;;;;;;;;;;;;;;;5.19;84.64;95417.50;4955079;29;1106;-50
2023/04/09 01:16:15;;;;;;;;;;;;;;;5.16;84.94;95404.53;4955355;29;972;-50
2023/04/09 01:19:01;;;;;;;;;;;;;;;5.33;84.83;95412.91;4955350;29;1073;-49
2023/04/09 01:21:32;;;;;;;;;;;;;;;5.34;84.62;95415.44;4954944;28;1911;-50
2023/04/09 01:24:16;;;;;;;;;;;;;;;5.35;84.31;95409.19;4955412;29;1054;-50
2023/04/09 01:27:04;;;;;;;;;;;;;;;5.31;84.68;95406.91;4955043;29;1032;-50
2023/04/09 01:29:34;;;;;;;;;;;;;;;5.34;84.50;95410.16;4955112;29;979;-50
2023/04/09 01:32:04;;;;;;;;;;;;;;;5.28;85.02;95406.19;4938125;29;1070;-49
2023/04/09 01:34:31;;;;;;;;;;;;;;;5.19;86.13;95398.97;4954872;29;1967;-50
2023/04/09 01:36:58;;;;;;;;;;;;;;;5.11;86.09;95397.91;4955213;29;1007;-49
2023/04/09 01:39:25;;;;;;;;;;;;;;;5.26;86.08;95402.81;4954866;29;929;-50
2023/04/09 01:41:51;;;;;;;;;;;;;;;5.38;85.21;95405.44;4955184;29;1903;-50
2023/04/09 01:44:18;;;;;;;;;;;;;;;5.43;85.25;95395.31;4955151;29;995;-49
2023/04/09 01:46:47;;;;;;;;;;;;;;;5.45;85.14;95396.88;4954892;29;1039;-50
2023/04/09 01:49:14;;;;;;;;;;;;;;;5.38;84.99;95400.16;4955036;29;1056;-50
2023/04/09 01:51:40;;;;;;;;;;;;;;;5.31;85.22;95397.13;4954825;29;1977;-50
2023/04/09 01:54:06;;;;;;;;;;;;;;;5.28;84.96;95403.53;4955026;29;991;-50
2023/04/09 01:56:39;;;;;;;;;;;;;;;5.21;85.40;95401.50;4954910;29;1031;-50
2023/04/09 01:59:05;;;;;;;;;;;;;;;5.23;85.68;95396.91;4954731;29;1325;-50
2023/04/09 02:01:34;;;;;;;;;;;;;;;5.21;85.60;95404.97;4954887;29;1915;-50
2023/04/09 02:04:01;;;;;;;;;;;;;;;5.21;85.01;95398.84;4954991;29;1007;-50
2023/04/09 02:06:33;;;;;;;;;;;;;;;5.07;85.00;95398.13;4954946;29;1022;-50
2023/04/09 02:09:00;;;;;;;;;;;;;;;5.15;85.20;95396.69;4947120;29;1219;-50
2023/04/09 02:11:28;;;;;;;;;;;;;;;5.15;85.02;95389.56;4935593;29;975;-50
2023/04/09 02:13:55;;;;;;;;;;;;;;;5.11;84.93;95395.25;4935420;29;1196;-50
2023/04/09 02:16:22;;;;;;;;;;;;;;;4.92;85.45;95394.03;4935384;29;1225;-50
2023/04/09 02:18:52;;;;;;;;;;;;;;;4.87;85.70;95397.03;4935744;29;1026;-50
2023/04/09 02:21:18;;;;;;;;;;;;;;;4.97;85.38;95396.31;4935543;29;1907;-50
2023/04/09 02:23:44;;;;;;;;;;;;;;;5.08;84.88;95391.88;4935411;29;1866;-50
2023/04/09 02:26:10;;;;;;;;;;;;;;;5.10;84.45;95391.72;4935526;29;1030;-50
2023/04/09 02:28:36;;;;;;;;;;;;;;;5.17;83.56;95390.28;4935335;29;1031;-50
2023/04/09 02:31:02;;;;;;;;;;;;;;;4.99;83.67;95381.13;4935674;29;1019;-50
2023/04/09 02:33:28;;;;;;;;;;;;;;;4.79;84.83;95385.38;4935672;29;1047;-50
2023/04/09 02:35:54;;;;;;;;;;;;;;;4.59;85.13;95384.25;4938991;29;1003;-50
2023/04/09 02:38:20;;;;;;;;;;;;;;;4.46;86.08;95387.03;4938701;29;1018;-50
2023/04/09 02:40:46;;;;;;;;;;;;;;;4.53;86.27;95385.56;4938876;29;984;-50
2023/04/09 02:43:12;;;;;;;;;;;;;;;4.66;86.01;95390.78;4938494;29;1915;-50
2023/04/09 02:45:38;;;;;;;;;;;;;;;4.62;85.34;95392.81;4938568;29;1019;-50
2023/04/09 02:48:04;;;;;;;;;;;;;;;4.59;85.82;95389.56;4938830;29;1077;-50
2023/04/09 02:50:30;;;;;;;;;;;;;;;4.49;85.78;95392.06;4938745;29;1015;-50
2023/04/09 02:52:56;;;;;;;;;;;;;;;4.39;86.28;95381.34;4938654;29;1050;-50
2023/04/09 02:55:22;;;;;;;;;;;;;;;4.55;85.76;95381.00;4938385;29;1106;-50
2023/04/09 02:57:48;;;;;;;;;;;;;;;4.62;85.78;95374.28;4938619;29;998;-50
2023/04/09 03:00:14;;;;;;;;;;;;;;;4.49;86.21;95377.03;4938143;29;1100;-50
2023/04/09 03:02:40;;;;;;;;;;;;;;;4.41;86.50;95376.78;4921320;29;1996;-49
2023/04/09 03:05:06;;;;;;;;;;;;;;;4.53;86.71;95390.88;4938459;29;1052;-50
2023/04/09 03:07:32;;;;;;;;;;;;;;;4.69;86.15;95382.59;4938380;29;1059;-50
2023/04/09 03:09:59;;;;;;;;;;;;;;;4.77;85.64;95385.50;4953467;29;1840;-50
2023/04/09 03:12:25;;;;;;;;;;;;;;;4.76;85.17;95375.88;4957232;29;968;-49
2023/04/09 03:14:51;;;;;;;;;;;;;;;4.72;85.62;95378.84;4957554;29;1020;-50
2023/04/09 03:17:17;;;;;;;;;;;;;;;4.85;85.44;95377.78;4957101;29;1091;-49
2023/04/09 03:19:43;;;;;;;;;;;;;;;4.98;84.76;95375.00;4957445;29;976;-50
2023/04/09 03:22:09;;;;;;;;;;;;;;;4.72;85.37;95381.50;4957362;29;1988;-50
2023/04/09 03:24:35;;;;;;;;;;;;;;;4.54;86.68;95379.34;4957009;29;1043;-51
2023/04/09 03:27:01;;;;;;;;;;;;;;;4.69;86.87;95382.59;4957078;29;1007;-50
2023/04/09 03:29:27;;;;;;;;;;;;;;;4.85;86.35;95383.06;4956888;29;1505;-50
2023/04/09 03:31:53;;;;;;;;;;;;;;;4.98;86.30;95384.78;4957231;29;1015;-50
2023/04/09 03:34:19;;;;;;;;;;;;;;;5.01;85.96;95387.19;4956862;29;1063;-50
2023/04/09 03:36:45;;;;;;;;;;;;;;;4.95;85.83;95391.16;4956991;29;1033;-50
2023/04/09 03:39:11;;;;;;;;;;;;;;;4.96;85.51;95392.00;4941389;29;1125;-50
2023/04/09 03:41:37;;;;;;;;;;;;;;;5.05;85.53;95391.28;4937775;29;1994;-50
2023/04/09 03:44:03;;;;;;;;;;;;;;;5.10;85.49;95389.09;4937554;29;1071;-50
2023/04/09 03:46:29;;;;;;;;;;;;;;;5.15;85.56;95392.22;4937446;29;1298;-50
2023/04/09 03:48:55;;;;;;;;;;;;;;;5.16;85.54;95399.22;4937644;29;1020;-50
2023/04/09 03:51:21;;;;;;;;;;;;;;;4.98;86.07;95400.66;4937548;29;1026;-50
2023/04/09 03:53:47;;;;;;;;;;;;;;;4.81;87.03;95402.81;4937525;29;987;-50
2023/04/09 03:56:13;;;;;;;;;;;;;;;4.73;87.83;95399.94;4937175;29;1091;-50
2023/04/09 03:58:39;;;;;;;;;;;;;;;4.80;88.50;95403.81;4937428;29;1103;-51
2023/04/09 04:01:05;;;;;;;;;;;;;;;5.07;87.10;95400.78;4937257;29;1057;-50
2023/04/09 04:03:31;;;;;;;;;;;;;;;5.30;86.07;95407.88;4937297;29;1986;-51
2023/04/09 04:06:01;;;;;;;;;;;;;;;5.37;85.60;95407.25;4937371;29;1011;-50
2023/04/09 04:08:27;;;;;;;;;;;;;;;5.36;85.49;95407.38;4940836;29;1242;-50
2023/04/09 04:10:53;;;;;;;;;;;;;;;5.29;85.78;95414.97;4956142;29;1091;-50
2023/04/09 04:13:19;;;;;;;;;;;;;;;5.16;87.07;95404.53;4956358;29;1042;-50
2023/04/09 04:15:45;;;;;;;;;;;;;;;5.05;87.58;95405.38;4956116;29;1035;-51
2023/04/09 04:18:11;;;;;;;;;;;;;;;5.29;86.62;95401.72;4956407;29;967;-51
2023/04/09 04:20:38;;;;;;;;;;;;;;;5.41;87.14;95411.34;4956228;29;953;-51
2023/04/09 04:23:04;;;;;;;;;;;;;;;5.48;86.93;95409.91;4955960;29;1907;-50
2023/04/09 04:25:30;;;;;;;;;;;;;;;5.49;86.65;95410.72;4956020;29;1066;-51
2023/04/09 04:27:56;;;;;;;;;;;;;;;5.54;85.96;95407.69;4955915;29;1883;-50
2023/04/09 04:30:22;;;;;;;;;;;;;;;5.51;86.42;95413.28;4955744;29;1019;-50
2023/04/09 04:32:49;;;;;;;;;;;;;;;5.44;87.05;95405.81;4955964;29;1031;-50
2023/04/09 04:35:15;;;;;;;;;;;;;;;5.35;87.08;95414.50;4955672;29;1118;-51
2023/04/09 04:37:41;;;;;;;;;;;;;;;5.40;87.57;95422.06;4955934;29;1042;-51
2023/04/09 04:40:08;;;;;;;;;;;;;;;5.42;88.03;95417.50;4955727;29;988;-50
2023/04/09 04:42:34;;;;;;;;;;;;;;;5.50;87.60;95415.06;4955847;29;1911;-49
2023/04/09 04:45:00;;;;;;;;;;;;;;;5.51;87.96;95416.75;4955765;29;1031;-50
2023/04/09 04:47:26;;;;;;;;;;;;;;;5.56;88.72;95422.53;4955456;29;1027;-50
2023/04/09 04:49:53;;;;;;;;;;;;;;;5.62;88.51;95413.25;4955747;29;1059;-50
2023/04/09 04:52:19;;;;;;;;;;;;;;;5.72;88.87;95419.47;4955739;29;924;-50
2023/04/09 04:54:45;;;;;;;;;;;;;;;5.76;88.43;95410.28;4955459;29;1090;-50
2023/04/09 04:57:11;;;;;;;;;;;;;;;5.80;88.42;95410.88;4954795;28;1077;-50
2023/04/09 04:59:38;;;;;;;;;;;;;;;5.98;88.16;95411.25;4955151;29;1120;-50
2023/04/09 05:02:07;;;;;;;;;;;;;;;6.01;87.61;95411.84;4955383;29;1915;-50
2023/04/09 05:04:33;;;;;;;;;;;;;;;6.10;86.97;95418.16;4955250;29;959;-50
2023/04/09 05:07:00;;;;;;;;;;;;;;;6.17;86.39;95426.47;4955607;29;1027;-50
2023/04/09 05:09:26;;;;;;;;;;;;;;;6.19;86.96;95417.41;4944377;29;1235;-50
2023/04/09 05:11:52;;;;;;;;;;;;;;;6.30;86.43;95421.84;4936277;29;987;-51
2023/04/09 05:14:20;;;;;;;;;;;;;;;6.41;86.52;95415.59;4935924;29;1063;-50
2023/04/09 05:16:46;;;;;;;;;;;;;;;6.44;85.40;95421.50;4936077;29;1107;-50
2023/04/09 05:19:12;;;;;;;;;;;;;;;6.54;85.61;95420.72;4936247;29;1007;-50
2023/04/09 05:21:38;;;;;;;;;;;;;;;6.64;85.36;95424.31;4936220;29;1980;-50
2023/04/09 05:24:04;;;;;;;;;;;;;;;6.60;85.68;95422.84;4936253;29;1061;-50
2023/04/09 05:26:30;;;;;;;;;;;;;;;6.50;85.55;95429.94;4935827;29;1027;-50
2023/04/09 05:28:56;;;;;;;;;;;;;;;6.47;85.93;95427.53;4936160;29;1027;-50
2023/04/09 05:31:22;;;;;;;;;;;;;;;6.59;85.36;95434.47;4936043;29;1062;-50
2023/04/09 05:33:49;;;;;;;;;;;;;;;6.65;84.42;95432.13;4936226;29;1015;-50
2023/04/09 05:36:16;;;;;;;;;;;;;;;6.71;85.46;95433.41;4935795;29;1848;-50
2023/04/09 05:38:42;;;;;;;;;;;;;;;6.77;85.58;95435.56;4935934;29;1083;-50
2023/04/09 05:41:09;;;;;;;;;;;;;;;6.82;85.13;95425.38;4936063;29;1055;-50
2023/04/09 05:43:35;;;;;;;;;;;;;;;7.03;85.02;95429.81;4935747;29;2012;-50
2023/04/09 05:46:01;;;;;;;;;;;;;;;7.14;84.84;95428.91;4936053;29;976;-50
2023/04/09 05:48:27;;;;;;;;;;;;;;;7.28;83.83;95433.00;4936040;29;1046;-50
2023/04/09 05:50:53;;;;;;;;;;;;;;;7.17;83.65;95426.81;4935740;29;1028;-50
2023/04/09 05:53:20;;;;;;;;;;;;;;;7.33;83.99;95420.16;4935676;29;1106;-50
2023/04/09 05:55:47;;;;;;;;;;;;;;;7.28;83.38;95427.69;4935695;29;1040;-51
2023/04/09 05:58:14;;;;;;;;;;;;;;;7.38;84.55;95428.56;4935863;29;952;-50
2023/04/09 06:00:41;;;;;;;;;;;;;;;7.45;83.58;95435.03;4935542;29;1295;-50
2023/04/09 06:03:07;;;;;;;;;;;;;;;7.54;83.91;95439.53;4935882;29;1915;-50
2023/04/09 06:05:34;;;;;;;;;;;;;;;7.45;84.29;95431.53;4935833;29;1022;-50
2023/04/09 06:08:00;;;;;;;;;;;;;;;7.55;85.14;95430.59;4936608;29;1220;-50
2023/04/09 06:10:26;;;;;;;;;;;;;;;7.70;84.69;95432.88;4958473;29;1232;-50
2023/04/09 06:12:52;;;;;;;;;;;;;;;7.72;84.51;95431.75;4958605;29;1039;-50
2023/04/09 06:15:19;;;;;;;;;;;;;;;7.74;84.62;95435.13;4958322;29;1094;-50
2023/04/09 06:17:45;;;;;;;;;;;;;;;7.67;85.01;95436.66;4958535;29;1054;-50
2023/04/09 06:20:11;;;;;;;;;;;;;;;7.73;85.00;95440.59;4958382;29;1057;-49
2023/04/09 06:22:37;;;;;;;;;;;;;;;7.86;83.75;95437.69;4958218;29;1999;-51
2023/04/09 06:25:03;;;;;;;;;;;;;;;7.88;84.81;95439.22;4958398;29;983;-51
2023/04/09 06:27:29;;;;;;;;;;;;;;;8.06;84.62;95438.53;4958337;29;1020;-50
2023/04/09 06:29:55;;;;;;;;;;;;;;;8.31;83.73;95442.47;4958451;29;1018;-50
2023/04/09 06:32:21;;;;;;;;;;;;;;;8.34;82.79;95440.38;4958181;29;996;-50
2023/04/09 06:34:48;;;;;;;;;;;;;;;8.45;80.30;95443.91;4958078;29;1055;-50
2023/04/09 06:37:14;;;;;;;;;;;;;;;8.46;80.21;95445.59;4958002;29;964;-50
2023/04/09 06:39:40;;;;;;;;;;;;;;;8.39;79.80;95438.13;4957840;29;1365;-50
2023/04/09 06:42:06;;;;;;;;;;;;;;;8.36;80.41;95451.72;4940756;29;1918;-50
2023/04/09 06:44:33;;;;;;;;;;;;;;;8.44;80.89;95450.22;4957833;29;1031;-50
2023/04/09 06:46:59;;;;;;;;;;;;;;;8.69;79.67;95446.97;4957826;29;1051;-50
2023/04/09 06:49:25;;;;;;;;;;;;;;;8.82;79.73;95435.16;4940560;29;1953;-50
2023/04/09 06:51:54;;;;;;;;;;;;;;;8.83;79.63;95444.84;4957843;29;1270;-50
2023/04/09 06:54:20;;;;;;;;;;;;;;;8.85;80.03;95449.06;4957861;29;976;-50
2023/04/09 06:56:47;;;;;;;;;;;;;;;8.88;79.25;95451.44;4957556;29;1102;-50
2023/04/09 06:59:13;;;;;;;;;;;;;;;9.12;78.45;95445.59;4957527;29;1211;-51
2023/04/09 07:01:39;;;;;;;;;;;;;;;9.34;77.74;95454.25;4957763;29;1994;-52
2023/04/09 07:04:05;;;;;;;;;;;;;;;9.51;76.84;95450.81;4957739;29;1077;-51
2023/04/09 07:06:31;;;;;;;;;;;;;;;9.46;75.58;95445.06;4957809;29;1010;-51
2023/04/09 07:08:57;;;;;;;;;;;;;;;9.61;76.49;95447.28;4950101;29;1176;-51
2023/04/09 07:11:24;;;;;;;;;;;;;;;9.72;76.25;95445.25;4938098;29;1220;-51
2023/04/09 07:13:50;;;;;;;;;;;;;;;9.73;75.51;95446.94;4938375;29;1047;-51
2023/04/09 07:16:16;;;;;;;;;;;;;;;9.64;74.77;95441.66;4938147;29;1893;-51
2023/04/09 07:18:42;;;;;;;;;;;;;;;9.79;75.55;95445.50;4938086;29;1035;-51
2023/04/09 07:21:08;;;;;;;;;;;;;;;9.85;75.15;95442.22;4937488;29;1091;-51
2023/04/09 07:23:37;;;;;;;;;;;;;;;9.77;75.09;95445.66;4937869;29;1902;-51
2023/04/09 07:26:04;;;;;;;;;;;;;;;9.73;74.37;95441.59;4937888;29;1055;-51
2023/04/09 07:28:31;;;;;;;;;;;;;;;9.92;76.89;95443.31;4938038;29;1028;-51
2023/04/09 07:30:57;;;;;;;;;;;;;;;9.81;74.38;95446.19;4937761;29;1301;-50
2023/04/09 07:33:23;;;;;;;;;;;;;;;10.09;74.61;95441.66;4937922;29;1051;-50
2023/04/09 07:35:50;;;;;;;;;;;;;;;10.13;74.14;95442.16;4937645;29;1118;-51
2023/04/09 07:38:16;;;;;;;;;;;;;;;9.95;75.71;95448.34;4937584;29;987;-50
2023/04/09 07:40:42;;;;;;;;;;;;;;;10.09;74.89;95451.47;4937885;29;1067;-51
2023/04/09 07:43:08;;;;;;;;;;;;;;;10.11;74.41;95450.38;4937790;29;1985;-51
2023/04/09 07:45:35;;;;;;;;;;;;;;;10.10;73.93;95453.19;4937718;29;979;-50
2023/04/09 07:48:01;;;;;;;;;;;;;;;10.27;74.06;95443.50;4937547;29;1048;-51
2023/04/09 07:50:27;;;;;;;;;;;;;;;10.39;73.53;95452.16;4937413;29;1213;-50
2023/04/09 07:52:53;;;;;;;;;;;;;;;10.60;71.83;95458.03;4937382;29;972;-51
2023/04/09 07:55:19;;;;;;;;;;;;;;;10.66;70.68;95464.59;4937273;29;1059;-51
2023/04/09 07:57:47;;;;;;;;;;;;;;;10.59;71.19;95460.88;4937688;29;1299;-51
2023/04/09 08:00:13;;;;;;;;;;;;;;;10.46;72.15;95459.41;4937056;29;1093;-51
2023/04/09 08:02:39;;;;;;;;;;;;;;;10.38;72.69;95459.34;4937499;29;1992;-51
2023/04/09 08:05:06;;;;;;;;;;;;;;;10.31;72.50;95464.44;4937079;29;1047;-50
2023/04/09 08:07:32;;;;;;;;;;;;;;;10.34;72.97;95472.16;4937076;29;1875;-51
2023/04/09 08:09:58;;;;;;;;;;;;;;;10.30;71.60;95465.44;4952174;29;1188;-50
2023/04/09 08:12:24;;;;;;;;;;;;;;;10.50;71.38;95465.28;4956043;29;1118;-50
2023/04/09 08:14:51;;;;;;;;;;;;;;;10.59;71.17;95464.38;4956258;29;981;-50
2023/04/09 08:17:17;;;;;;;;;;;;;;;10.57;70.63;95469.03;4955993;29;1110;-50
2023/04/09 08:19:43;;;;;;;;;;;;;;;10.47;71.51;95471.81;4956217;29;1055;-50
2023/04/09 08:22:10;;;;;;;;;;;;;;;10.36;70.46;95469.34;4955973;29;1898;-50
2023/04/09 08:24:37;;;;;;;;;;;;;;;10.34;70.92;95471.34;4956104;29;1043;-50
2023/04/09 08:27:03;;;;;;;;;;;;;;;10.08;69.24;95474.69;4956221;29;1035;-50
2023/04/09 08:29:30;;;;;;;;;;;;;;;10.06;70.31;95474.00;4956232;29;1017;-50
2023/04/09 08:31:56;;;;;;;;;;;;;;;10.12;69.78;95477.91;4955159;28;972;-50
2023/04/09 08:34:22;;;;;;;;;;;;;;;10.13;68.75;95479.56;4956138;29;987;-51
2023/04/09 08:36:48;;;;;;;;;;;;;;;10.15;69.33;95477.63;4955793;29;1051;-51
2023/04/09 08:39:17;;;;;;;;;;;;;;;10.29;72.36;95474.41;4955634;29;995;-50
2023/04/09 08:41:46;;;;;;;;;;;;;;;10.41;73.13;95471.56;4955488;29;1907;-50
2023/04/09 08:44:12;;;;;;;;;;;;;;;10.48;72.66;95470.78;4955571;29;1090;-50
2023/04/09 08:46:39;;;;;;;;;;;;;;;10.54;72.85;95477.34;4955615;29;1047;-50
2023/04/09 08:49:07;;;;;;;;;;;;;;;10.48;73.82;95468.13;4955553;29;1118;-51
2023/04/09 08:51:33;;;;;;;;;;;;;;;10.41;74.69;95476.91;4955532;29;987;-50
2023/04/09 08:54:00;;;;;;;;;;;;;;;10.44;76.00;95472.09;4955475;29;1071;-50
2023/04/09 08:56:26;;;;;;;;;;;;;;;10.41;76.51;95482.25;4955390;29;936;-50
2023/04/09 08:58:53;;;;;;;;;;;;;;;10.46;77.16;95475.44;4955236;29;1069;-51
2023/04/09 09:01:20;;;;;;;;;;;;;;;10.48;77.88;95483.31;4955343;29;1039;-50
2023/04/09 09:03:56;;;;;;;;;;;;;;;10.47;77.03;95476.28;4955339;29;1982;-50
2023/04/09 09:06:24;;;;;;;;;;;;;;;10.42;78.59;95474.09;4955272;29;1277;-51
2023/04/09 09:09:00;;;;;;;;;;;;;;;10.23;73.21;95475.03;4949188;29;1243;-50
2023/04/09 09:11:26;;;;;;;;;;;;;;;10.35;76.14;95478.34;4936258;29;979;-50
2023/04/09 09:13:56;;;;;;;;;;;;;;;10.39;74.58;95470.88;4936151;29;1051;-50
2023/04/09 09:16:23;;;;;;;;;;;;;;;10.30;71.53;95473.47;4936248;29;1067;-50
2023/04/09 09:18:49;;;;;;;;;;;;;;;10.37;74.07;95472.84;4936312;29;1055;-50
2023/04/09 09:21:16;;;;;;;;;;;;;;;10.61;74.61;95470.41;4935895;29;1040;-50
2023/04/09 09:23:43;;;;;;;;;;;;;;;10.60;73.17;95467.88;4936121;29;1906;-51
2023/04/09 09:26:13;;;;;;;;;;;;;;;10.56;71.61;95470.03;4935980;29;1997;-50
2023/04/09 09:28:39;;;;;;;;;;;;;;;10.60;71.15;95465.22;4936093;29;952;-50
2023/04/09 09:31:08;;;;;;;;;;;;;;;10.77;69.85;95460.84;4936014;29;1054;-50
2023/04/09 09:33:35;;;;;;;;;;;;;;;10.85;69.56;95460.91;4935763;29;1043;-51
2023/04/09 09:36:02;;;;;;;;;;;;;;;10.85;69.86;95468.94;4936340;29;1039;-50
2023/04/09 09:38:29;;;;;;;;;;;;;;;11.04;69.07;95462.56;4935882;29;976;-50
2023/04/09 09:40:55;;;;;;;;;;;;;;;11.08;69.82;95454.06;4936173;29;1024;-50
2023/04/09 09:43:21;;;;;;;;;;;;;;;11.42;67.45;95461.31;4937372;29;1985;-50
2023/04/09 09:45:47;;;;;;;;;;;;;;;11.36;65.42;95456.56;4939738;29;1040;-50
2023/04/09 09:48:14;;;;;;;;;;;;;;;11.11;65.95;95453.75;4939618;29;1051;-50
2023/04/09 09:50:41;;;;;;;;;;;;;;;11.12;68.35;95447.41;4940027;29;1044;-50
2023/04/09 09:53:09;;;;;;;;;;;;;;;11.31;66.31;95448.19;4922969;29;1042;-50
2023/04/09 09:55:40;;;;;;;;;;;;;;;11.27;69.56;95453.03;4939644;29;1039;-51
2023/04/09 10:01:56;;;;;;;;;;;;;;;11.29;70.79;95450.19;4928208;29;1998;-51
2023/04/09 10:04:23;;;;;;;;;;;;;;;11.03;67.36;95445.66;4939448;29;1051;-50
2023/04/09 10:06:50;;;;;;;;;;;;;;;10.88;69.59;95447.22;4939603;29;964;-50
2023/04/09 10:09:17;;;;;;;;;;;;;;;11.05;71.03;95445.50;4932330;29;1211;-50
2023/04/09 10:11:46;;;;;;;;;;;;;;;11.10;71.90;95453.91;4958716;29;979;-50
2023/04/09 10:14:12;;;;;;;;;;;;;;;11.24;71.39;95447.97;4958318;29;1082;-50
2023/04/09 10:16:39;;;;;;;;;;;;;;;11.36;71.82;95445.84;4958415;29;932;-50
2023/04/09 10:19:08;;;;;;;;;;;;;;;11.37;70.60;95449.41;4958356;29;1035;-50
2023/04/09 10:21:40;;;;;;;;;;;;;;;11.35;69.05;95438.84;4958308;29;1906;-50
2023/04/09 10:24:07;;;;;;;;;;;;;;;11.15;69.42;95440.88;4958485;29;1010;-51
2023/04/09 10:26:35;;;;;;;;;;;;;;;11.22;72.66;95439.25;4958105;29;1043;-50
2023/04/09 10:29:14;;;;;;;;;;;;;;;11.25;68.89;95443.44;4958268;29;1225;-50
2023/04/09 10:31:59;;;;;;;;;;;;;;;11.08;72.73;95440.69;4958449;29;980;-51
2023/04/09 10:34:26;;;;;;;;;;;;;;;11.23;71.59;95440.09;4958049;29;1020;-50
2023/04/09 10:36:56;;;;;;;;;;;;;;;11.24;73.65;95442.63;4958176;29;1019;-50
2023/04/09 10:39:43;;;;;;;;;;;;;;;11.42;71.82;95434.53;4958028;29;1019;-50
2023/04/09 10:42:26;;;;;;;;;;;;;;;11.35;70.17;95432.66;4958043;29;1980;-50
2023/04/09 10:45:05;;;;;;;;;;;;;;;11.37;71.85;95431.50;4958285;29;1068;-50
2023/04/09 10:47:32;;;;;;;;;;;;;;;11.37;69.07;95436.84;4957778;29;1107;-50
2023/04/09 10:50:13;;;;;;;;;;;;;;;11.39;71.33;95428.66;4957805;29;1095;-50
2023/04/09 10:52:40;;;;;;;;;;;;;;;11.50;70.52;95433.75;4957784;29;1042;-50
2023/04/09 10:55:06;;;;;;;;;;;;;;;11.42;73.13;95421.16;4956941;28;1071;-50
2023/04/09 10:57:33;;;;;;;;;;;;;;;11.43;73.15;95420.13;4957640;29;1015;-50
2023/04/09 10:59:59;;;;;;;;;;;;;;;11.41;73.35;95422.13;4957595;29;1055;-50
2023/04/09 11:02:41;;;;;;;;;;;;;;;11.28;72.29;95411.84;4957263;29;1996;-52
2023/04/09 11:05:16;;;;;;;;;;;;;;;11.28;70.87;95413.69;4958143;29;1560;-51
2023/04/09 11:07:52;;;;;;;;;;;;;;;11.58;69.39;95414.19;4957670;29;1032;-51
2023/04/09 11:10:19;;;;;;;;;;;;;;;11.48;71.53;95407.13;4939639;29;1228;-52
2023/04/09 11:12:46;;;;;;;;;;;;;;;11.29;73.13;95402.00;4938510;29;1054;-53
2023/04/09 11:15:15;;;;;;;;;;;;;;;11.59;72.09;95397.97;4938245;29;1126;-53
2023/04/09 11:17:41;;;;;;;;;;;;;;;11.88;71.87;95408.28;4938255;29;965;-50
2023/04/09 11:20:08;;;;;;;;;;;;;;;12.07;69.76;95406.34;4938169;29;1363;-51
2023/04/09 11:22:35;;;;;;;;;;;;;;;11.94;68.83;95400.63;4937944;29;1910;-50
2023/04/09 11:25:02;;;;;;;;;;;;;;;11.84;70.42;95406.91;4938251;29;971;-51
2023/04/09 11:27:28;;;;;;;;;;;;;;;11.97;70.68;95400.28;4938242;29;916;-51
2023/04/09 11:29:57;;;;;;;;;;;;;;;12.11;69.56;95400.47;4938203;29;1035;-52
2023/04/09 11:32:27;;;;;;;;;;;;;;;12.09;69.08;95398.97;4938129;29;1014;-51
2023/04/09 11:34:53;;;;;;;;;;;;;;;12.26;69.22;95400.69;4938108;29;1056;-50
2023/04/09 11:37:19;;;;;;;;;;;;;;;12.05;67.38;95394.97;4937634;29;1028;-50
2023/04/09 11:39:45;;;;;;;;;;;;;;;11.94;68.48;95389.91;4938048;29;1024;-51
2023/04/09 11:42:15;;;;;;;;;;;;;;;11.90;67.26;95392.91;4937734;29;1992;-51
2023/04/09 11:44:41;;;;;;;;;;;;;;;12.03;67.02;95386.25;4920718;29;1215;-51
2023/04/09 11:47:08;;;;;;;;;;;;;;;11.66;66.47;95393.63;4937685;29;1034;-51
2023/04/09 11:49:34;;;;;;;;;;;;;;;11.75;67.23;95385.63;4920633;29;1035;-51
2023/04/09 11:52:02;;;;;;;;;;;;;;;11.69;67.11;95387.94;4937665;29;965;-51
2023/04/09 11:54:35;;;;;;;;;;;;;;;12.00;66.42;95383.88;4937747;29;1027;-51
2023/04/09 11:57:04;;;;;;;;;;;;;;;12.06;66.36;95389.41;4937645;29;1020;-51
2023/04/09 11:59:30;;;;;;;;;;;;;;;12.08;67.36;95381.22;4937387;29;1035;-51
2023/04/09 12:01:56;;;;;;;;;;;;;;;12.29;66.65;95378.91;4937253;29;1989;-51
2023/04/09 12:04:22;;;;;;;;;;;;;;;12.30;67.22;95372.53;4937548;29;1019;-51
2023/04/09 12:06:49;;;;;;;;;;;;;;;12.37;66.54;95371.84;4937213;29;1026;-51
2023/04/09 12:09:15;;;;;;;;;;;;;;;12.27;65.52;95372.88;4946821;29;1224;-51
2023/04/09 12:11:42;;;;;;;;;;;;;;;12.20;63.79;95371.88;4956700;29;1082;-51
2023/04/09 12:14:12;;;;;;;;;;;;;;;12.20;65.76;95374.53;4956295;29;1190;-51
2023/04/09 12:16:42;;;;;;;;;;;;;;;11.98;62.74;95370.66;4956554;29;1051;-51
2023/04/09 12:19:09;;;;;;;;;;;;;;;12.19;65.79;95362.13;4956517;29;1005;-51
2023/04/09 12:21:48;;;;;;;;;;;;;;;12.20;63.36;95366.50;4956051;29;1566;-51
2023/04/09 12:24:15;;;;;;;;;;;;;;;12.26;62.55;95363.16;4956091;29;1043;-50
2023/04/09 12:26:42;;;;;;;;;;;;;;;12.30;62.81;95359.13;4956064;29;996;-50
2023/04/09 12:29:08;;;;;;;;;;;;;;;12.17;63.03;95360.63;4955996;29;1762;-51
2023/04/09 12:31:35;;;;;;;;;;;;;;;12.28;61.63;95354.94;4939103;29;1031;-51
2023/04/09 12:34:01;;;;;;;;;;;;;;;12.45;63.19;95358.47;4956008;29;1106;-51
2023/04/09 12:36:27;;;;;;;;;;;;;;;12.35;63.17;95352.41;4956071;29;1077;-51
2023/04/09 12:38:53;;;;;;;;;;;;;;;12.37;62.55;95359.31;4955845;29;991;-51
2023/04/09 12:41:19;;;;;;;;;;;;;;;11.82;62.98;95309.81;4955744;29;972;-51
2023/04/09 12:43:46;;;;;;;;;;;;;;;12.30;66.33;95348.41;4938868;29;1997;-51
2023/04/09 12:46:12;;;;;;;;;;;;;;;12.62;66.35;95352.09;4955907;29;995;-51
2023/04/09 12:48:38;;;;;;;;;;;;;;;12.64;62.80;95349.25;4955670;29;1070;-51
2023/04/09 12:51:05;;;;;;;;;;;;;;;12.70;63.40;95343.19;4955266;29;1298;-50
2023/04/09 12:53:31;;;;;;;;;;;;;;;12.92;65.49;95346.19;4955517;29;1047;-50
2023/04/09 12:55:58;;;;;;;;;;;;;;;12.74;62.05;95341.84;4955645;29;1059;-51
2023/04/09 12:58:24;;;;;;;;;;;;;;;12.66;63.32;95337.34;4955667;29;1004;-51
2023/04/09 13:00:51;;;;;;;;;;;;;;;12.83;64.97;95337.31;4955528;29;1093;-51
2023/04/09 13:03:17;;;;;;;;;;;;;;;12.79;65.43;95338.66;4955514;29;1911;-50
2023/04/09 13:05:44;;;;;;;;;;;;;;;12.77;63.75;95338.00;4955341;29;1051;-50
2023/04/09 13:08:10;;;;;;;;;;;;;;;12.55;64.25;95335.00;4954247;29;1173;-52
2023/04/09 13:10:37;;;;;;;;;;;;;;;12.54;65.52;95327.09;4936206;29;1031;-52